sensor_id;sensor_type;location;lat;lon;timestamp;pressure;altitude;pressure_sealevel;temperature;humidity
80644;BME280;70010;60.224;24.712;2023-06-22T00:01:05;101043.40;;;15.27;58.11
80644;BME280;70010;60.224;24.712;2023-06-22T00:03:30;101037.86;;;15.40;57.90
80644;BME280;70010;60.224;24.712;2023-06-22T00:05:55;101031.34;;;15.56;56.90
80644;BME280;70010;60.224;24.712;2023-06-22T00:08:20;101029.03;;;15.37;57.26
80644;BME280;70010;60.224;24.712;2023-06-22T00:10:46;101030.90;;;15.54;57.44
80644;BME280;70010;60.224;24.712;2023-06-22T00:13:12;101028.49;;;15.30;58.19
80644;BME280;70010;60.224;24.712;2023-06-22T00:15:38;101025.77;;;14.91;58.83
80644;BME280;70010;60.224;24.712;2023-06-22T00:18:02;101026.87;;;14.99;59.20
80644;BME280;70010;60.224;24.712;2023-06-22T00:20:28;101024.62;;;15.02;58.98
80644;BME280;70010;60.224;24.712;2023-06-22T00:22:53;101022.13;;;15.03;59.08
80644;BME280;70010;60.224;24.712;2023-06-22T00:25:18;101016.63;;;14.98;59.12
80644;BME280;70010;60.224;24.712;2023-06-22T00:27:43;101016.93;;;15.07;58.89
80644;BME280;70010;60.224;24.712;2023-06-22T00:30:09;101014.73;;;15.02;59.56
80644;BME280;70010;60.224;24.712;2023-06-22T00:32:34;101011.66;;;14.59;59.36
80644;BME280;70010;60.224;24.712;2023-06-22T00:35:00;101010.38;;;15.05;58.93
80644;BME280;70010;60.224;24.712;2023-06-22T00:37:26;101009.88;;;14.97;58.97
80644;BME280;70010;60.224;24.712;2023-06-22T00:39:51;101011.29;;;14.71;59.51
80644;BME280;70010;60.224;24.712;2023-06-22T00:42:16;101011.46;;;14.67;59.53
80644;BME280;70010;60.224;24.712;2023-06-22T00:44:41;101010.32;;;14.69;59.72
80644;BME280;70010;60.224;24.712;2023-06-22T00:47:07;101006.60;;;15.01;59.43
80644;BME280;70010;60.224;24.712;2023-06-22T00:49:32;101008.51;;;14.93;59.04
80644;BME280;70010;60.224;24.712;2023-06-22T00:51:57;101010.37;;;14.85;58.76
80644;BME280;70010;60.224;24.712;2023-06-22T00:54:22;101009.94;;;14.77;59.54
80644;BME280;70010;60.224;24.712;2023-06-22T00:56:47;101009.34;;;14.62;59.85
80644;BME280;70010;60.224;24.712;2023-06-22T00:59:12;101006.47;;;14.83;59.39
80644;BME280;70010;60.224;24.712;2023-06-22T01:01:37;101001.89;;;15.33;58.61
80644;BME280;70010;60.224;24.712;2023-06-22T01:04:03;100992.49;;;15.43;57.93
80644;BME280;70010;60.224;24.712;2023-06-22T01:06:32;100996.89;;;14.90;58.90
80644;BME280;70010;60.224;24.712;2023-06-22T01:09:00;100993.40;;;14.73;59.26
80644;BME280;70010;60.224;24.712;2023-06-22T01:11:25;100989.08;;;14.53;59.80
80644;BME280;70010;60.224;24.712;2023-06-22T01:13:50;100985.35;;;14.75;59.35
80644;BME280;70010;60.224;24.712;2023-06-22T01:16:14;100983.72;;;14.74;59.37
80644;BME280;70010;60.224;24.712;2023-06-22T01:18:36;100983.78;;;14.66;59.09
80644;BME280;70010;60.224;24.712;2023-06-22T01:21:01;100977.39;;;14.83;59.21
80644;BME280;70010;60.224;24.712;2023-06-22T01:23:39;100975.34;;;14.85;59.28
80644;BME280;70010;60.224;24.712;2023-06-22T01:25:58;100974.65;;;14.61;60.40
80644;BME280;70010;60.224;24.712;2023-06-22T01:30:43;100967.61;;;14.62;59.67
80644;BME280;70010;60.224;24.712;2023-06-22T01:33:11;100962.07;;;14.82;59.22
80644;BME280;70010;60.224;24.712;2023-06-22T01:35:33;100961.33;;;14.87;59.10
80644;BME280;70010;60.224;24.712;2023-06-22T01:37:59;100962.37;;;14.72;59.48
80644;BME280;70010;60.224;24.712;2023-06-22T01:40:25;100965.06;;;14.08;60.97
80644;BME280;70010;60.224;24.712;2023-06-22T01:42:50;100965.22;;;14.49;60.04
80644;BME280;70010;60.224;24.712;2023-06-22T01:45:15;100957.79;;;14.91;58.82
80644;BME280;70010;60.224;24.712;2023-06-22T01:47:40;100959.15;;;14.65;59.48
80644;BME280;70010;60.224;24.712;2023-06-22T01:50:06;100958.77;;;14.57;59.75
80644;BME280;70010;60.224;24.712;2023-06-22T01:52:31;100956.85;;;14.79;59.82
80644;BME280;70010;60.224;24.712;2023-06-22T01:54:56;100955.73;;;14.60;59.95
80644;BME280;70010;60.224;24.712;2023-06-22T01:57:22;100946.45;;;14.87;59.74
80644;BME280;70010;60.224;24.712;2023-06-22T01:59:59;100940.26;;;14.87;59.89
80644;BME280;70010;60.224;24.712;2023-06-22T02:02:16;100945.18;;;14.69;60.73
80644;BME280;70010;60.224;24.712;2023-06-22T02:04:46;100946.56;;;14.67;60.93
80644;BME280;70010;60.224;24.712;2023-06-22T02:07:08;100936.40;;;15.36;58.36
80644;BME280;70010;60.224;24.712;2023-06-22T02:09:30;100934.38;;;15.38;58.13
80644;BME280;70010;60.224;24.712;2023-06-22T02:11:56;100930.46;;;15.23;57.94
80644;BME280;70010;60.224;24.712;2023-06-22T02:14:19;100929.54;;;15.31;58.22
80644;BME280;70010;60.224;24.712;2023-06-22T02:16:44;100923.08;;;15.40;58.22
80644;BME280;70010;60.224;24.712;2023-06-22T02:19:10;100921.84;;;15.49;58.13
80644;BME280;70010;60.224;24.712;2023-06-22T02:21:35;100923.95;;;14.89;59.74
80644;BME280;70010;60.224;24.712;2023-06-22T02:24:01;100920.93;;;15.36;58.58
80644;BME280;70010;60.224;24.712;2023-06-22T02:26:27;100924.84;;;15.24;58.92
80644;BME280;70010;60.224;24.712;2023-06-22T02:28:52;100920.20;;;15.18;58.48
80644;BME280;70010;60.224;24.712;2023-06-22T02:31:18;100924.29;;;15.11;58.61
80644;BME280;70010;60.224;24.712;2023-06-22T02:33:43;100922.08;;;15.51;58.19
80644;BME280;70010;60.224;24.712;2023-06-22T02:36:08;100923.82;;;15.34;58.32
80644;BME280;70010;60.224;24.712;2023-06-22T02:38:33;100924.94;;;15.80;57.85
80644;BME280;70010;60.224;24.712;2023-06-22T02:40:59;100923.67;;;15.43;57.81
80644;BME280;70010;60.224;24.712;2023-06-22T02:43:24;100919.96;;;15.82;57.66
80644;BME280;70010;60.224;24.712;2023-06-22T02:45:49;100920.96;;;16.16;57.29
80644;BME280;70010;60.224;24.712;2023-06-22T02:48:15;100918.67;;;15.86;57.52
80644;BME280;70010;60.224;24.712;2023-06-22T02:50:40;100921.76;;;15.92;58.04
80644;BME280;70010;60.224;24.712;2023-06-22T02:53:06;100919.31;;;16.09;57.91
80644;BME280;70010;60.224;24.712;2023-06-22T02:55:31;100916.39;;;16.11;57.51
80644;BME280;70010;60.224;24.712;2023-06-22T02:57:56;100915.35;;;16.06;57.75
80644;BME280;70010;60.224;24.712;2023-06-22T03:00:22;100919.68;;;16.06;58.47
80644;BME280;70010;60.224;24.712;2023-06-22T03:02:48;100916.73;;;15.71;58.22
80644;BME280;70010;60.224;24.712;2023-06-22T03:05:13;100915.50;;;16.63;56.54
80644;BME280;70010;60.224;24.712;2023-06-22T03:07:37;100913.90;;;16.15;57.92
80644;BME280;70010;60.224;24.712;2023-06-22T03:10:03;100915.05;;;15.97;57.89
80644;BME280;70010;60.224;24.712;2023-06-22T03:12:28;100916.09;;;16.24;58.88
80644;BME280;70010;60.224;24.712;2023-06-22T03:14:53;100919.30;;;15.90;59.22
80644;BME280;70010;60.224;24.712;2023-06-22T03:17:19;100920.73;;;16.64;57.97
80644;BME280;70010;60.224;24.712;2023-06-22T03:19:44;100921.61;;;16.35;58.27
80644;BME280;70010;60.224;24.712;2023-06-22T03:22:10;100922.78;;;16.45;57.62
80644;BME280;70010;60.224;24.712;2023-06-22T03:24:35;100921.53;;;16.81;55.49
80644;BME280;70010;60.224;24.712;2023-06-22T03:27:01;100919.09;;;16.65;55.77
80644;BME280;70010;60.224;24.712;2023-06-22T03:29:27;100918.66;;;16.78;56.57
80644;BME280;70010;60.224;24.712;2023-06-22T03:31:52;100915.94;;;17.07;56.25
80644;BME280;70010;60.224;24.712;2023-06-22T03:34:18;100916.75;;;17.14;56.26
80644;BME280;70010;60.224;24.712;2023-06-22T03:36:44;100913.24;;;17.03;56.90
80644;BME280;70010;60.224;24.712;2023-06-22T03:39:09;100908.62;;;17.25;57.51
80644;BME280;70010;60.224;24.712;2023-06-22T03:41:35;100906.46;;;17.19;57.34
80644;BME280;70010;60.224;24.712;2023-06-22T03:44:01;100908.12;;;17.19;56.41
80644;BME280;70010;60.224;24.712;2023-06-22T03:46:26;100911.84;;;17.76;54.56
80644;BME280;70010;60.224;24.712;2023-06-22T03:48:52;100912.38;;;19.11;51.17
80644;BME280;70010;60.224;24.712;2023-06-22T03:51:17;100907.32;;;19.40;48.91
80644;BME280;70010;60.224;24.712;2023-06-22T03:53:43;100904.11;;;20.19;48.05
80644;BME280;70010;60.224;24.712;2023-06-22T03:56:08;100907.22;;;21.67;43.09
80644;BME280;70010;60.224;24.712;2023-06-22T03:58:33;100908.50;;;18.93;47.44
80644;BME280;70010;60.224;24.712;2023-06-22T04:00:58;100908.19;;;21.65;42.92
80644;BME280;70010;60.224;24.712;2023-06-22T04:03:24;100907.11;;;20.34;43.94
80644;BME280;70010;60.224;24.712;2023-06-22T04:05:49;100906.94;;;18.68;48.38
80644;BME280;70010;60.224;24.712;2023-06-22T04:08:15;100905.73;;;18.09;50.53
80644;BME280;70010;60.224;24.712;2023-06-22T04:10:40;100896.09;;;19.03;48.14
80644;BME280;70010;60.224;24.712;2023-06-22T04:13:06;100898.69;;;18.50;49.52
80644;BME280;70010;60.224;24.712;2023-06-22T04:15:31;100893.75;;;21.40;42.96
80644;BME280;70010;60.224;24.712;2023-06-22T04:17:56;100896.06;;;19.28;46.21
80644;BME280;70010;60.224;24.712;2023-06-22T04:20:21;100892.12;;;19.13;46.62
80644;BME280;70010;60.224;24.712;2023-06-22T04:22:46;100889.36;;;18.15;49.86
80644;BME280;70010;60.224;24.712;2023-06-22T04:25:12;100886.28;;;17.83;50.14
80644;BME280;70010;60.224;24.712;2023-06-22T04:27:38;100882.61;;;19.63;45.64
80644;BME280;70010;60.224;24.712;2023-06-22T04:30:05;100884.48;;;19.23;46.20
80644;BME280;70010;60.224;24.712;2023-06-22T04:32:29;100884.54;;;19.08;46.50
80644;BME280;70010;60.224;24.712;2023-06-22T04:34:55;100887.46;;;20.78;43.31
80644;BME280;70010;60.224;24.712;2023-06-22T04:37:20;100884.47;;;21.49;42.29
80644;BME280;70010;60.224;24.712;2023-06-22T04:39:45;100881.54;;;19.50;46.06
80644;BME280;70010;60.224;24.712;2023-06-22T04:42:12;100881.28;;;20.70;44.03
80644;BME280;70010;60.224;24.712;2023-06-22T04:44:36;100883.46;;;19.63;46.25
80644;BME280;70010;60.224;24.712;2023-06-22T04:47:02;100883.05;;;19.43;46.84
80644;BME280;70010;60.224;24.712;2023-06-22T04:49:28;100878.74;;;20.56;44.75
80644;BME280;70010;60.224;24.712;2023-06-22T04:51:54;100891.88;;;18.65;48.85
80644;BME280;70010;60.224;24.712;2023-06-22T04:54:19;100895.39;;;19.00;48.50
80644;BME280;70010;60.224;24.712;2023-06-22T04:56:44;100894.06;;;19.27;47.77
80644;BME280;70010;60.224;24.712;2023-06-22T04:59:10;100898.03;;;19.62;48.39
80644;BME280;70010;60.224;24.712;2023-06-22T05:01:35;100901.56;;;19.82;47.07
80644;BME280;70010;60.224;24.712;2023-06-22T05:04:01;100908.84;;;19.22;47.99
80644;BME280;70010;60.224;24.712;2023-06-22T05:06:27;100911.16;;;19.81;46.62
80644;BME280;70010;60.224;24.712;2023-06-22T05:08:53;100922.28;;;18.37;50.08
80644;BME280;70010;60.224;24.712;2023-06-22T05:11:17;100913.93;;;19.71;47.08
80644;BME280;70010;60.224;24.712;2023-06-22T05:13:42;100911.69;;;21.22;43.53
80644;BME280;70010;60.224;24.712;2023-06-22T05:16:08;100910.91;;;21.66;42.18
80644;BME280;70010;60.224;24.712;2023-06-22T05:18:34;100915.89;;;20.55;44.28
80644;BME280;70010;60.224;24.712;2023-06-22T05:20:59;100916.01;;;21.13;43.96
80644;BME280;70010;60.224;24.712;2023-06-22T05:23:25;100914.39;;;19.79;45.98
80644;BME280;70010;60.224;24.712;2023-06-22T05:25:50;100912.27;;;20.81;44.14
80644;BME280;70010;60.224;24.712;2023-06-22T05:28:15;100903.32;;;21.73;42.33
80644;BME280;70010;60.224;24.712;2023-06-22T05:30:41;100907.81;;;21.10;43.22
80644;BME280;70010;60.224;24.712;2023-06-22T05:33:06;100909.61;;;21.78;42.41
80644;BME280;70010;60.224;24.712;2023-06-22T05:35:32;100903.12;;;21.52;42.76
80644;BME280;70010;60.224;24.712;2023-06-22T05:37:58;100896.62;;;21.94;42.33
80644;BME280;70010;60.224;24.712;2023-06-22T05:40:23;100894.00;;;21.11;43.64
80644;BME280;70010;60.224;24.712;2023-06-22T05:42:48;100895.42;;;20.89;44.25
80644;BME280;70010;60.224;24.712;2023-06-22T05:45:14;100898.53;;;23.28;40.46
80644;BME280;70010;60.224;24.712;2023-06-22T05:47:39;100896.87;;;22.80;41.00
80644;BME280;70010;60.224;24.712;2023-06-22T05:50:06;100901.04;;;22.27;41.84
80644;BME280;70010;60.224;24.712;2023-06-22T05:52:31;100896.05;;;20.66;43.93
80644;BME280;70010;60.224;24.712;2023-06-22T05:54:56;100896.03;;;20.02;45.42
80644;BME280;70010;60.224;24.712;2023-06-22T05:57:21;100900.55;;;20.38;45.46
80644;BME280;70010;60.224;24.712;2023-06-22T05:59:46;100900.45;;;20.02;46.18
80644;BME280;70010;60.224;24.712;2023-06-22T06:02:12;100899.86;;;21.02;44.81
80644;BME280;70010;60.224;24.712;2023-06-22T06:04:38;100902.09;;;22.51;41.60
80644;BME280;70010;60.224;24.712;2023-06-22T06:07:04;100898.53;;;22.06;42.41
80644;BME280;70010;60.224;24.712;2023-06-22T06:09:29;100899.68;;;20.15;46.28
80644;BME280;70010;60.224;24.712;2023-06-22T06:11:55;100904.38;;;21.25;44.15
80644;BME280;70010;60.224;24.712;2023-06-22T06:14:20;100899.08;;;21.59;43.13
80644;BME280;70010;60.224;24.712;2023-06-22T06:16:46;100897.21;;;21.99;42.61
80644;BME280;70010;60.224;24.712;2023-06-22T06:19:11;100897.10;;;21.18;44.06
80644;BME280;70010;60.224;24.712;2023-06-22T06:21:36;100899.02;;;21.65;43.93
80644;BME280;70010;60.224;24.712;2023-06-22T06:24:02;100897.10;;;20.19;46.81
80644;BME280;70010;60.224;24.712;2023-06-22T06:26:27;100896.50;;;21.99;43.21
80644;BME280;70010;60.224;24.712;2023-06-22T06:28:53;100895.41;;;19.07;51.01
80644;BME280;70010;60.224;24.712;2023-06-22T06:31:18;100891.26;;;20.86;46.58
80644;BME280;70010;60.224;24.712;2023-06-22T06:33:43;100886.80;;;20.14;47.69
80644;BME280;70010;60.224;24.712;2023-06-22T06:36:08;100886.07;;;21.41;45.13
80644;BME280;70010;60.224;24.712;2023-06-22T06:38:34;100875.62;;;21.50;45.35
80644;BME280;70010;60.224;24.712;2023-06-22T06:40:59;100874.15;;;18.59;52.30
80644;BME280;70010;60.224;24.712;2023-06-22T06:43:25;100870.19;;;18.48;52.54
80644;BME280;70010;60.224;24.712;2023-06-22T06:45:50;100864.25;;;21.34;47.22
80644;BME280;70010;60.224;24.712;2023-06-22T06:48:16;100863.29;;;19.02;53.14
80644;BME280;70010;60.224;24.712;2023-06-22T06:50:41;100869.35;;;18.11;55.84
80644;BME280;70010;60.224;24.712;2023-06-22T06:53:07;100867.23;;;18.44;56.31
80644;BME280;70010;60.224;24.712;2023-06-22T06:55:32;100859.30;;;18.94;54.57
80644;BME280;70010;60.224;24.712;2023-06-22T06:57:57;100862.34;;;18.17;56.71
80644;BME280;70010;60.224;24.712;2023-06-22T07:00:23;100854.70;;;18.68;56.30
80644;BME280;70010;60.224;24.712;2023-06-22T07:02:49;100855.34;;;18.43;56.77
80644;BME280;70010;60.224;24.712;2023-06-22T07:05:14;100854.44;;;18.27;57.33
80644;BME280;70010;60.224;24.712;2023-06-22T07:07:39;100852.62;;;18.47;57.44
80644;BME280;70010;60.224;24.712;2023-06-22T07:10:05;100845.55;;;19.67;55.08
80644;BME280;70010;60.224;24.712;2023-06-22T07:12:30;100847.29;;;18.69;57.37
80644;BME280;70010;60.224;24.712;2023-06-22T07:15:01;100846.99;;;18.93;56.20
80644;BME280;70010;60.224;24.712;2023-06-22T07:17:21;100846.71;;;19.19;56.15
80644;BME280;70010;60.224;24.712;2023-06-22T07:19:46;100842.24;;;18.99;57.46
80644;BME280;70010;60.224;24.712;2023-06-22T07:22:11;100845.08;;;18.19;59.57
80644;BME280;70010;60.224;24.712;2023-06-22T07:24:37;100843.43;;;18.30;57.94
80644;BME280;70010;60.224;24.712;2023-06-22T07:27:03;100836.61;;;18.80;57.72
80644;BME280;70010;60.224;24.712;2023-06-22T07:29:28;100840.68;;;18.85;58.06
80644;BME280;70010;60.224;24.712;2023-06-22T07:31:53;100842.12;;;18.92;59.12
80644;BME280;70010;60.224;24.712;2023-06-22T07:34:19;100843.09;;;19.04;57.55
80644;BME280;70010;60.224;24.712;2023-06-22T07:36:44;100849.05;;;18.64;58.21
80644;BME280;70010;60.224;24.712;2023-06-22T07:39:09;100855.37;;;18.39;59.71
80644;BME280;70010;60.224;24.712;2023-06-22T07:41:34;100858.30;;;18.51;58.47
80644;BME280;70010;60.224;24.712;2023-06-22T07:43:59;100850.75;;;20.31;53.09
80644;BME280;70010;60.224;24.712;2023-06-22T07:46:25;100852.62;;;20.29;52.36
80644;BME280;70010;60.224;24.712;2023-06-22T07:48:50;100855.36;;;18.96;55.83
80644;BME280;70010;60.224;24.712;2023-06-22T07:51:16;100852.71;;;19.43;54.55
80644;BME280;70010;60.224;24.712;2023-06-22T07:53:42;100849.66;;;19.75;54.20
80644;BME280;70010;60.224;24.712;2023-06-22T07:56:07;100844.10;;;20.39;52.73
80644;BME280;70010;60.224;24.712;2023-06-22T07:58:32;100842.10;;;20.94;50.78
80644;BME280;70010;60.224;24.712;2023-06-22T08:00:57;100838.37;;;21.98;47.93
80644;BME280;70010;60.224;24.712;2023-06-22T08:03:22;100838.83;;;22.79;45.61
80644;BME280;70010;60.224;24.712;2023-06-22T08:05:48;100836.90;;;20.26;51.09
80644;BME280;70010;60.224;24.712;2023-06-22T08:08:13;100831.00;;;19.55;53.09
80644;BME280;70010;60.224;24.712;2023-06-22T08:10:39;100828.52;;;19.05;55.85
80644;BME280;70010;60.224;24.712;2023-06-22T08:13:04;100830.06;;;19.38;54.52
80644;BME280;70010;60.224;24.712;2023-06-22T08:15:30;100832.05;;;19.02;55.73
80644;BME280;70010;60.224;24.712;2023-06-22T08:17:55;100834.86;;;19.96;53.82
80644;BME280;70010;60.224;24.712;2023-06-22T08:20:21;100838.80;;;20.14;51.42
80644;BME280;70010;60.224;24.712;2023-06-22T08:22:46;100837.93;;;21.30;48.57
80644;BME280;70010;60.224;24.712;2023-06-22T08:25:11;100843.80;;;19.11;53.73
80644;BME280;70010;60.224;24.712;2023-06-22T08:27:37;100838.27;;;18.99;54.91
80644;BME280;70010;60.224;24.712;2023-06-22T08:30:03;100836.75;;;19.42;54.08
80644;BME280;70010;60.224;24.712;2023-06-22T08:32:29;100836.17;;;18.99;55.14
80644;BME280;70010;60.224;24.712;2023-06-22T08:34:54;100836.67;;;18.84;56.35
80644;BME280;70010;60.224;24.712;2023-06-22T08:37:19;100841.92;;;18.47;58.25
80644;BME280;70010;60.224;24.712;2023-06-22T08:39:44;100841.00;;;18.52;56.86
80644;BME280;70010;60.224;24.712;2023-06-22T08:42:09;100840.65;;;18.80;56.71
80644;BME280;70010;60.224;24.712;2023-06-22T08:44:35;100835.89;;;21.14;50.52
80644;BME280;70010;60.224;24.712;2023-06-22T08:47:01;100837.95;;;21.29;48.39
80644;BME280;70010;60.224;24.712;2023-06-22T08:49:27;100846.19;;;22.23;46.71
80644;BME280;70010;60.224;24.712;2023-06-22T08:51:52;100846.88;;;22.75;45.66
80644;BME280;70010;60.224;24.712;2023-06-22T08:54:17;100842.43;;;20.10;50.94
80644;BME280;70010;60.224;24.712;2023-06-22T08:56:42;100843.19;;;20.39;51.07
80644;BME280;70010;60.224;24.712;2023-06-22T08:59:08;100844.58;;;19.20;55.22
80644;BME280;70010;60.224;24.712;2023-06-22T09:01:33;100846.16;;;19.67;54.43
80644;BME280;70010;60.224;24.712;2023-06-22T09:03:58;100843.74;;;20.22;52.35
80644;BME280;70010;60.224;24.712;2023-06-22T09:06:24;100852.69;;;18.23;59.71
80644;BME280;70010;60.224;24.712;2023-06-22T09:08:50;100839.83;;;19.14;56.38
80644;BME280;70010;60.224;24.712;2023-06-22T09:11:15;100839.23;;;19.30;56.65
80644;BME280;70010;60.224;24.712;2023-06-22T09:13:40;100835.56;;;20.51;52.72
80644;BME280;70010;60.224;24.712;2023-06-22T09:16:06;100841.08;;;19.53;55.29
80644;BME280;70010;60.224;24.712;2023-06-22T09:18:31;100837.34;;;21.16;51.74
80644;BME280;70010;60.224;24.712;2023-06-22T09:20:56;100834.44;;;19.44;54.68
80644;BME280;70010;60.224;24.712;2023-06-22T09:23:22;100832.43;;;19.19;56.77
80644;BME280;70010;60.224;24.712;2023-06-22T09:25:47;100829.25;;;21.15;51.63
80644;BME280;70010;60.224;24.712;2023-06-22T09:28:12;100830.58;;;18.46;58.29
80644;BME280;70010;60.224;24.712;2023-06-22T09:30:38;100831.70;;;19.08;58.01
80644;BME280;70010;60.224;24.712;2023-06-22T09:33:03;100827.20;;;21.55;50.01
80644;BME280;70010;60.224;24.712;2023-06-22T09:35:29;100836.04;;;22.26;47.72
80644;BME280;70010;60.224;24.712;2023-06-22T09:37:54;100833.53;;;19.09;55.67
80644;BME280;70010;60.224;24.712;2023-06-22T09:40:19;100831.17;;;17.39;61.09
80644;BME280;70010;60.224;24.712;2023-06-22T09:42:44;100830.42;;;17.68;61.47
80644;BME280;70010;60.224;24.712;2023-06-22T09:45:10;100821.47;;;20.29;53.81
80644;BME280;70010;60.224;24.712;2023-06-22T09:47:36;100819.61;;;21.05;49.90
80644;BME280;70010;60.224;24.712;2023-06-22T09:50:01;100820.22;;;18.81;56.25
80644;BME280;70010;60.224;24.712;2023-06-22T09:52:27;100815.55;;;19.65;54.06
80644;BME280;70010;60.224;24.712;2023-06-22T09:54:52;100820.17;;;17.88;59.56
80644;BME280;70010;60.224;24.712;2023-06-22T09:57:18;100811.38;;;18.41;58.89
80644;BME280;70010;60.224;24.712;2023-06-22T09:59:43;100803.48;;;22.39;48.03
80644;BME280;70010;60.224;24.712;2023-06-22T10:02:08;100802.28;;;19.94;52.17
80644;BME280;70010;60.224;24.712;2023-06-22T10:04:35;100799.74;;;18.98;54.96
80644;BME280;70010;60.224;24.712;2023-06-22T10:06:59;100805.88;;;17.70;59.58
80644;BME280;70010;60.224;24.712;2023-06-22T10:09:24;100797.33;;;21.23;50.76
80644;BME280;70010;60.224;24.712;2023-06-22T10:11:50;100796.40;;;19.41;53.36
80644;BME280;70010;60.224;24.712;2023-06-22T10:14:15;100794.92;;;19.54;54.03
80644;BME280;70010;60.224;24.712;2023-06-22T10:16:41;100792.88;;;21.75;49.02
80644;BME280;70010;60.224;24.712;2023-06-22T10:19:06;100791.72;;;20.42;51.34
80644;BME280;70010;60.224;24.712;2023-06-22T10:21:32;100793.61;;;19.27;54.66
80644;BME280;70010;60.224;24.712;2023-06-22T10:23:57;100787.63;;;23.54;44.89
80644;BME280;70010;60.224;24.712;2023-06-22T10:26:22;100794.66;;;21.16;48.14
80644;BME280;70010;60.224;24.712;2023-06-22T10:28:48;100791.50;;;20.35;50.99
80644;BME280;70010;60.224;24.712;2023-06-22T10:31:13;100792.36;;;20.26;52.53
80644;BME280;70010;60.224;24.712;2023-06-22T10:33:38;100788.38;;;20.63;51.26
80644;BME280;70010;60.224;24.712;2023-06-22T10:36:04;100787.02;;;21.26;49.70
80644;BME280;70010;60.224;24.712;2023-06-22T10:38:30;100788.18;;;20.81;50.92
80644;BME280;70010;60.224;24.712;2023-06-22T10:40:55;100789.50;;;19.84;52.43
80644;BME280;70010;60.224;24.712;2023-06-22T10:43:20;100788.05;;;19.54;54.06
80644;BME280;70010;60.224;24.712;2023-06-22T10:45:46;100790.07;;;19.90;52.83
80644;BME280;70010;60.224;24.712;2023-06-22T10:48:12;100793.46;;;17.79;58.87
80644;BME280;70010;60.224;24.712;2023-06-22T10:50:38;100781.88;;;19.76;54.72
80644;BME280;70010;60.224;24.712;2023-06-22T10:53:03;100777.92;;;20.51;52.46
80644;BME280;70010;60.224;24.712;2023-06-22T10:55:29;100781.88;;;18.62;57.51
80644;BME280;70010;60.224;24.712;2023-06-22T10:57:54;100777.68;;;19.29;56.58
80644;BME280;70010;60.224;24.712;2023-06-22T11:00:19;100774.69;;;23.11;46.68
80644;BME280;70010;60.224;24.712;2023-06-22T11:02:45;100776.80;;;21.93;47.43
80644;BME280;70010;60.224;24.712;2023-06-22T11:05:10;100773.21;;;21.97;48.03
80644;BME280;70010;60.224;24.712;2023-06-22T11:07:37;100773.82;;;21.13;50.47
80644;BME280;70010;60.224;24.712;2023-06-22T11:10:02;100775.05;;;18.97;55.26
80644;BME280;70010;60.224;24.712;2023-06-22T11:12:26;100768.79;;;21.25;50.15
80644;BME280;70010;60.224;24.712;2023-06-22T11:14:52;100761.77;;;24.48;43.68
80644;BME280;70010;60.224;24.712;2023-06-22T11:17:18;100757.69;;;25.17;41.84
80644;BME280;70010;60.224;24.712;2023-06-22T11:19:44;100757.76;;;24.12;43.26
80644;BME280;70010;60.224;24.712;2023-06-22T11:22:09;100761.70;;;21.43;49.15
80644;BME280;70010;60.224;24.712;2023-06-22T11:24:35;100761.25;;;22.32;46.66
80644;BME280;70010;60.224;24.712;2023-06-22T11:27:00;100765.32;;;22.12;48.56
80644;BME280;70010;60.224;24.712;2023-06-22T11:29:26;100757.79;;;23.79;43.67
80644;BME280;70010;60.224;24.712;2023-06-22T11:31:51;100764.45;;;20.23;51.50
80644;BME280;70010;60.224;24.712;2023-06-22T11:34:17;100764.87;;;20.58;51.75
80644;BME280;70010;60.224;24.712;2023-06-22T11:36:42;100764.89;;;21.31;49.44
80644;BME280;70010;60.224;24.712;2023-06-22T11:39:08;100763.03;;;20.90;50.61
80644;BME280;70010;60.224;24.712;2023-06-22T11:41:34;100757.73;;;21.55;49.76
80644;BME280;70010;60.224;24.712;2023-06-22T11:44:00;100757.01;;;20.97;49.93
80644;BME280;70010;60.224;24.712;2023-06-22T11:46:25;100743.80;;;23.53;44.62
80644;BME280;70010;60.224;24.712;2023-06-22T11:48:51;100744.57;;;22.66;45.67
80644;BME280;70010;60.224;24.712;2023-06-22T11:51:16;100742.42;;;24.30;42.12
80644;BME280;70010;60.224;24.712;2023-06-22T11:53:42;100743.55;;;22.31;46.04
80644;BME280;70010;60.224;24.712;2023-06-22T11:56:07;100744.38;;;21.08;48.46
80644;BME280;70010;60.224;24.712;2023-06-22T11:58:32;100744.14;;;21.17;47.34
80644;BME280;70010;60.224;24.712;2023-06-22T12:00:57;100747.34;;;21.32;46.96
80644;BME280;70010;60.224;24.712;2023-06-22T12:03:23;100747.08;;;20.41;48.00
80644;BME280;70010;60.224;24.712;2023-06-22T12:05:49;100745.77;;;19.69;50.32
80644;BME280;70010;60.224;24.712;2023-06-22T12:08:14;100746.42;;;19.64;50.79
80644;BME280;70010;60.224;24.712;2023-06-22T12:10:40;100744.56;;;19.71;50.81
80644;BME280;70010;60.224;24.712;2023-06-22T12:13:05;100747.70;;;20.73;48.56
80644;BME280;70010;60.224;24.712;2023-06-22T12:15:30;100752.47;;;19.70;51.20
80644;BME280;70010;60.224;24.712;2023-06-22T12:17:55;100743.90;;;19.63;51.62
80644;BME280;70010;60.224;24.712;2023-06-22T12:20:21;100744.18;;;18.41;54.90
80644;BME280;70010;60.224;24.712;2023-06-22T12:22:46;100741.72;;;20.13;52.19
80644;BME280;70010;60.224;24.712;2023-06-22T12:25:11;100740.24;;;20.62;50.53
80644;BME280;70010;60.224;24.712;2023-06-22T12:27:37;100742.06;;;21.06;49.10
80644;BME280;70010;60.224;24.712;2023-06-22T12:30:02;100746.14;;;20.14;50.81
80644;BME280;70010;60.224;24.712;2023-06-22T12:32:27;100748.78;;;20.58;50.28